Pagina principale
METAR-TAF:

METAR-TAF

Aeroporti :

Milano, Italia

Aeroporto di Milano-Linate

latitudine: 45-26N, longitudine: 009-17E, altezza: 107 m

Osservazione

Il bollettino è stato emesso 24 minuti fa, alle 06:20 UTC
Vento 3 kt da direzioni variabili
Temperature 21°C
Umidità 56%
Pressione 1006 hPa
Visibilità 10 km o più
Nubi sparse ad un'altezza di 5000 ft

METAR: LIML 260620Z VRB03KT 9999 SCT050 21/12 Q1006 NOSIG

Ora: 08:44 (06:44 UTC)

Previsione

Il bollettino è stato emesso 1 ora e 44 minuti fa, alle 05:00 UTC
Previsione valida dal 26 alle 06 UTC al 27 alle 06 UTC
Vento 10 kt da nord/nord-ovest
Visibilità 10 km o più
Nubi sparse ad un'altezza di 5000 ft

TAF: LIML 260500Z 2606/2706 34010KT 9999 SCT050

Osservazioni e previsioni meteorologiche di più di 4000 aeroporti (messaggi METAR e TAF).

Le stazioni disponibili sono rappresentate dai dischi gialli e rossi sulla carta.

Puntare il mouse per vedere il nome della stazione.

Clicca sopra per visualizzare le osservazioni e previsioni meteorologiche.

Per cambiare la mappa : fare clic sui pulsanti verdi con una croce nera per ingrandire, il pulsante verde con un trattino per diminuire, o sulla freccia verde per le mappe adiacenti.


METAR-TAF: